Saturday, November 18, 2017, 11:55 PM EST
Back to Local

KNEL, Lakehurst Naval Air Station

Location: Lakehurst, NJ, United States Lat: 40.033
Local Time: 11:55 PM EST ( 4:55 GMT) Lon: -74.317
Time Zone: US/Eastern Elev: 101 ft

Show me the last for .
Show Decoded

2017-11-18 20:00 METAR KNEL 190100Z AUTO 14005KT 10SM SCT100 BKN120 10/08 A2955 RMK AO2 PRESFR
                 SLP004 T01000083 PNO $ =
2017-11-18 19:00 METAR KNEL 190000Z AUTO 00000KT 9SM FEW055 BKN075 OVC095 09/08 A2960 RMK AO2
                 RAE2339 SLP021 6//// T00890083 10117 20089 56015 PNO $ =
2017-11-18 18:00 METAR KNEL 182300Z AUTO 20005KT 7SM -RA FEW070 OVC090 11/07 A2963 RMK AO2
                 RAB2231 SLP031 T01110072 PNO $ =
2017-11-18 17:00 METAR KNEL 182200Z AUTO 20005KT 10SM FEW070 OVC090 12/06 A2964 RMK AO2 SLP035
                 T01170056 PNO $ =
2017-11-18 16:00 METAR KNEL 182100Z AUTO 19006KT 10SM OVC085 12/04 A2965 RMK AO2 SLP038 6////
                 T01170044 56045 PNO $ =
2017-11-18 15:00 METAR KNEL 182000Z AUTO 19010G17KT 10SM BKN085 OVC100 12/04 A2967 RMK AO2 SLP045
                 T01170039 PNO $ =
2017-11-18 14:00 METAR KNEL 181900Z AUTO 16008KT 10SM OVC100 12/02 A2971 RMK AO2 SLP058 T01170022
                 PNO $ =
2017-11-18 13:00 METAR KNEL 181800Z AUTO 19008KT 10SM OVC100 11/02 A2976 RMK AO2 SLP076 6////
                 T01110017 10111 21033 58042 PNO $ =
2017-11-18 12:00 METAR KNEL 181700Z AUTO 19008KT 10SM CLR 11/02 A2980 RMK AO2 SLP090 T01110017
                 PNO $ =
2017-11-18 11:00 METAR KNEL 181600Z AUTO 22010KT 10SM CLR 10/02 A2987 RMK AO2 SLP114 T01000017
                 PNO $ =
2017-11-18 10:00 METAR KNEL 181500Z AUTO 20006KT 10SM CLR 08/02 A2990 RMK AO2 SLP125 6////
                 T00780022 58024 PNO $ =
2017-11-18 09:00 METAR KNEL 181400Z AUTO 13003KT 10SM CLR 03/M01 A2993 RMK AO2 SLP134 T00331006
                 PNO $ =
2017-11-18 08:00 METAR KNEL 181300Z AUTO 00000KT 10SM CLR 00/M03 A2995 RMK AO2 SLP142 T00001028
                 FZRANO PNO $ =
2017-11-18 07:00 METAR KNEL 181200Z AUTO 00000KT 10SM CLR M03/M04 A2999 RMK AO2 SLP155 6////
                 7//// T10281044 11028 21056 58007 FZRANO PNO $ =
2017-11-18 06:00 METAR KNEL 181100Z AUTO 00000KT 10SM CLR M04/M05 A3000 RMK AO2 SLP158 T10391050
                 FZRANO PNO $ =
2017-11-18 05:00 METAR KNEL 181000Z AUTO 00000KT 10SM CLR M06/M07 A3002 RMK AO2 SLP163 T10561072
                 FZRANO PNO $ =
2017-11-18 04:00 METAR KNEL 180900Z AUTO 00000KT 10SM CLR M05/M06 A3002 RMK AO2 SLP163 6////
                 T10501061 58009 FZRANO PNO $ =

Support USWX by starting your Amazon purchase here.